createdAt,value
2023-04-01T00:02:01.777Z,10.90
2023-04-01T00:04:31.122Z,11.70
2023-04-01T00:07:00.975Z,13.40
2023-04-01T00:09:30.110Z,14.10
2023-04-01T00:12:00.208Z,14.30
2023-04-01T00:14:30.542Z,14.70
2023-04-01T00:16:59.775Z,15.50
2023-04-01T00:19:29.949Z,15.10
2023-04-01T00:22:00.702Z,13.50
2023-04-01T00:24:32.070Z,14.70
2023-04-01T00:27:01.399Z,15.00
2023-04-01T00:29:31.886Z,13.90
2023-04-01T00:32:01.293Z,12.80
2023-04-01T00:34:30.724Z,13.70
2023-04-01T00:37:01.799Z,12.40
2023-04-01T00:39:32.782Z,12.10
2023-04-01T00:42:04.514Z,11.90
2023-04-01T00:44:36.292Z,12.60
2023-04-01T00:47:06.525Z,13.00
2023-04-01T00:49:42.442Z,13.00
2023-04-01T00:52:15.561Z,15.00
2023-04-01T00:54:49.762Z,15.20
2023-04-01T00:57:48.726Z,14.20
2023-04-01T01:00:20.134Z,14.20
2023-04-01T01:02:53.130Z,12.90
2023-04-01T01:05:48.152Z,13.00
2023-04-01T01:08:54.205Z,16.90
2023-04-01T01:11:42.739Z,15.30
2023-04-01T01:14:35.641Z,13.50
2023-04-01T01:17:27.894Z,16.50
2023-04-01T01:20:31.774Z,13.80
2023-04-01T01:23:22.327Z,11.90
2023-04-01T01:26:10.462Z,11.20
2023-04-01T01:28:52.830Z,15.40
2023-04-01T01:31:36.496Z,12.20
2023-04-01T01:34:25.688Z,12.70
2023-04-01T01:36:59.377Z,13.10
2023-04-01T01:39:35.236Z,13.40
2023-04-01T01:42:09.638Z,11.10
2023-04-01T01:44:43.143Z,13.80
2023-04-01T01:47:13.344Z,15.40
2023-04-01T01:52:14.642Z,16.40
2023-04-01T01:54:53.114Z,22.50
2023-04-01T01:57:38.001Z,20.60
2023-04-01T02:00:16.808Z,19.80
2023-04-01T02:02:49.225Z,15.10
2023-04-01T02:05:26.304Z,15.70
2023-04-01T02:08:09.040Z,15.90
2023-04-01T02:10:44.086Z,14.30
2023-04-01T02:14:00.254Z,17.30
2023-04-01T02:16:36.155Z,16.90
2023-04-01T02:19:11.940Z,16.90
2023-04-01T02:21:44.143Z,17.50
2023-04-01T02:24:17.039Z,17.00
2023-04-01T02:26:47.620Z,17.10
2023-04-01T02:29:20.909Z,15.30
2023-04-01T02:31:52.052Z,16.60
2023-04-01T02:34:23.054Z,16.20
2023-04-01T02:36:54.688Z,16.50
2023-04-01T02:39:24.783Z,14.70
2023-04-01T02:41:53.858Z,15.10
2023-04-01T02:44:22.871Z,14.40
2023-04-01T02:46:52.027Z,12.70
2023-04-01T02:49:21.420Z,12.10
2023-04-01T02:51:51.756Z,13.20
2023-04-01T02:54:22.602Z,12.50
2023-04-01T02:56:52.991Z,14.00
2023-04-01T02:59:23.384Z,13.50
2023-04-01T03:01:54.079Z,12.70
2023-04-01T03:04:23.745Z,12.10
2023-04-01T03:06:53.560Z,12.10
2023-04-01T03:09:23.310Z,12.40
2023-04-01T03:11:52.681Z,11.00
2023-04-01T03:14:22.447Z,15.80
2023-04-01T03:16:51.618Z,16.30
2023-04-01T03:19:21.945Z,11.60
2023-04-01T03:21:51.700Z,15.00
2023-04-01T03:24:22.313Z,13.20
2023-04-01T03:26:52.601Z,14.20
2023-04-01T03:29:22.967Z,12.70
2023-04-01T03:31:52.420Z,13.50
2023-04-01T03:34:21.688Z,13.80
2023-04-01T03:36:50.960Z,16.60
2023-04-01T03:39:20.604Z,13.20
2023-04-01T03:41:50.583Z,14.80
2023-04-01T03:44:19.886Z,15.40
2023-04-01T03:46:50.755Z,13.40
2023-04-01T03:49:19.948Z,13.20
2023-04-01T03:51:49.742Z,16.20
2023-04-01T03:54:21.918Z,14.40
2023-04-01T03:56:52.736Z,13.70
2023-04-01T03:59:22.898Z,14.70
2023-04-01T04:01:52.083Z,13.50
2023-04-01T04:04:21.367Z,13.20
2023-04-01T04:06:50.686Z,16.20
2023-04-01T04:09:20.370Z,16.00
2023-04-01T04:11:51.434Z,18.40
2023-04-01T04:14:20.803Z,15.70
2023-04-01T04:16:50.332Z,15.20
2023-04-01T04:19:19.432Z,15.90
2023-04-01T04:21:48.295Z,18.70
2023-04-01T04:24:17.372Z,15.20
2023-04-01T04:27:05.642Z,17.90
2023-04-01T04:29:34.909Z,15.10
2023-04-01T04:32:04.381Z,17.50
2023-04-01T04:34:34.043Z,14.60
2023-04-01T04:37:03.403Z,15.10
2023-04-01T04:39:34.983Z,14.60
2023-04-01T04:42:04.228Z,17.30
2023-04-01T04:44:33.187Z,15.90
2023-04-01T04:47:03.205Z,14.70
2023-04-01T04:49:32.317Z,15.80
2023-04-01T04:52:01.865Z,12.30
2023-04-01T04:54:31.435Z,11.00
2023-04-01T04:57:01.552Z,12.80
2023-04-01T04:59:33.405Z,14.40
2023-04-01T05:02:08.926Z,13.50
2023-04-01T05:04:38.116Z,13.30
2023-04-01T05:07:08.340Z,13.60
2023-04-01T05:09:37.447Z,13.80
2023-04-01T05:12:06.775Z,15.40
2023-04-01T05:14:58.676Z,19.70
2023-04-01T05:17:27.733Z,17.90
2023-04-01T05:19:56.396Z,17.40
2023-04-01T05:22:25.572Z,17.20
2023-04-01T05:24:54.957Z,15.80
2023-04-01T05:27:24.681Z,16.60
2023-04-01T05:29:53.548Z,18.30
2023-04-01T05:32:51.949Z,16.60
2023-04-01T05:35:20.677Z,15.30
2023-04-01T05:37:49.401Z,17.50
2023-04-01T05:40:18.685Z,15.40
2023-04-01T05:42:47.225Z,17.40
2023-04-01T05:45:16.950Z,19.80
2023-04-01T05:48:04.862Z,19.40
2023-04-01T05:50:40.887Z,17.50
2023-04-01T05:53:09.452Z,19.10
2023-04-01T05:55:38.144Z,21.60
2023-04-01T05:58:06.943Z,16.70
2023-04-01T06:00:36.164Z,18.30
2023-04-01T06:03:05.011Z,19.50
2023-04-01T06:05:42.744Z,18.20
2023-04-01T06:08:19.866Z,17.20
2023-04-01T06:11:25.082Z,19.40
2023-04-01T06:14:01.856Z,19.10
2023-04-01T06:16:37.227Z,19.00
2023-04-01T06:19:21.077Z,21.10
2023-04-01T06:22:14.706Z,19.40
2023-04-01T06:25:01.568Z,21.80
2023-04-01T06:27:52.917Z,19.70
2023-04-01T06:30:36.977Z,19.00
2023-04-01T06:33:31.840Z,18.10
2023-04-01T06:36:25.231Z,18.60
2023-04-01T06:39:21.905Z,18.20
2023-04-01T06:42:16.730Z,20.90
2023-04-01T06:45:21.944Z,24.50
2023-04-01T06:48:19.367Z,22.60
2023-04-01T06:51:33.166Z,21.00
2023-04-01T06:54:36.279Z,17.50
2023-04-01T06:57:21.151Z,22.00
2023-04-01T06:59:50.294Z,20.30
2023-04-01T07:02:44.495Z,26.30
2023-04-01T07:05:16.384Z,24.60
2023-04-01T07:07:50.574Z,20.80
2023-04-01T07:10:27.295Z,22.00
2023-04-01T07:13:29.744Z,26.30
2023-04-01T07:16:14.156Z,23.20
2023-04-01T07:18:59.535Z,24.20
2023-04-01T07:21:46.076Z,27.60
2023-04-01T07:24:35.992Z,34.70
2023-04-01T07:27:12.195Z,28.50
2023-04-01T07:29:41.804Z,31.20
2023-04-01T07:34:57.759Z,29.20
2023-04-01T07:37:45.542Z,27.40
2023-04-01T07:40:30.496Z,24.50
2023-04-01T07:43:07.371Z,21.60
2023-04-01T07:45:52.046Z,16.00
2023-04-01T07:48:21.354Z,22.00
2023-04-01T07:51:04.480Z,21.90
2023-04-01T07:54:02.654Z,21.40
2023-04-01T07:57:07.367Z,26.00
2023-04-01T08:00:01.506Z,28.30
2023-04-01T08:02:53.787Z,33.10
2023-04-01T08:05:56.506Z,33.30
2023-04-01T08:09:01.412Z,30.20
2023-04-01T08:11:54.617Z,25.40
2023-04-01T08:15:05.708Z,21.80
2023-04-01T08:20:29.843Z,20.70
2023-04-01T08:23:06.950Z,19.60
2023-04-01T08:25:42.318Z,17.90
2023-04-01T08:28:18.220Z,16.80
2023-04-01T08:31:01.877Z,17.30
2023-04-01T08:33:33.468Z,16.00
2023-04-01T08:36:18.411Z,13.90
2023-04-01T08:39:03.501Z,13.30
2023-04-01T08:41:54.683Z,16.90
2023-04-01T08:44:47.785Z,13.30
2023-04-01T08:47:41.712Z,10.00
2023-04-01T08:50:47.609Z,9.80
2023-04-01T08:53:26.142Z,10.90
2023-04-01T08:56:16.140Z,10.60
2023-04-01T08:59:15.919Z,11.00
2023-04-01T09:02:00.684Z,16.20
2023-04-01T09:05:07.959Z,19.80
2023-04-01T09:07:54.938Z,19.20
2023-04-01T09:10:37.852Z,26.10
2023-04-01T09:13:44.317Z,21.10
2023-04-01T09:16:37.914Z,19.10
2023-04-01T09:19:06.678Z,15.60
2023-04-01T09:21:44.349Z,16.70
2023-04-01T09:24:23.265Z,15.70
2023-04-01T09:27:03.948Z,13.30
2023-04-01T09:30:10.280Z,13.20
2023-04-01T09:32:41.709Z,13.10
2023-04-01T09:36:03.469Z,14.80
2023-04-01T09:38:58.899Z,15.30
2023-04-01T09:41:27.998Z,14.50
2023-04-01T09:44:31.635Z,13.70
2023-04-01T09:47:36.451Z,13.70
2023-04-01T09:50:06.682Z,17.10
2023-04-01T09:52:38.875Z,14.10
2023-04-01T09:55:58.952Z,15.00
2023-04-01T09:58:43.811Z,15.20
2023-04-01T10:01:40.131Z,12.70
2023-04-01T10:04:41.832Z,14.10
2023-04-01T10:07:13.630Z,12.50
2023-04-01T10:10:07.047Z,12.00
2023-04-01T10:13:02.655Z,16.60
2023-04-01T10:15:57.085Z,15.10
2023-04-01T10:18:44.502Z,11.80
2023-04-01T10:21:51.691Z,12.40
2023-04-01T10:24:39.210Z,13.00
2023-04-01T10:27:23.960Z,13.20
2023-04-01T10:30:30.778Z,13.50
2023-04-01T10:33:07.835Z,15.00
2023-04-01T10:36:09.469Z,14.80
2023-04-01T10:39:35.679Z,14.10
2023-04-01T10:42:57.616Z,14.50
2023-04-01T10:46:19.745Z,14.40
2023-04-01T10:49:19.312Z,14.20
2023-04-01T10:52:01.226Z,14.40
2023-04-01T10:57:56.242Z,15.50
2023-04-01T11:00:55.912Z,12.60
2023-04-01T11:03:56.458Z,14.40
2023-04-01T11:07:08.948Z,14.40
2023-04-01T11:09:59.545Z,14.00
2023-04-01T11:15:15.774Z,15.00
2023-04-01T11:18:17.138Z,12.70
2023-04-01T11:21:03.954Z,12.60
2023-04-01T11:24:05.739Z,13.10
2023-04-01T11:27:12.406Z,11.70
2023-04-01T11:30:00.268Z,10.90
2023-04-01T11:32:56.379Z,24.10
2023-04-01T11:36:09.209Z,32.50
2023-04-01T11:38:47.245Z,30.40
2023-04-01T11:41:53.371Z,36.60
2023-04-01T11:44:44.683Z,43.20
2023-04-01T11:47:37.774Z,41.80
2023-04-01T11:50:25.395Z,38.10
2023-04-01T11:53:06.832Z,34.60
2023-04-01T11:55:48.633Z,36.10
2023-04-01T11:58:35.741Z,32.00
2023-04-01T12:01:38.937Z,26.30
2023-04-01T12:04:31.936Z,29.20
2023-04-01T12:07:44.245Z,24.00
2023-04-01T12:10:32.462Z,20.90
2023-04-01T12:13:33.145Z,16.50
2023-04-01T12:16:18.030Z,12.70
2023-04-01T12:18:52.451Z,13.00
2023-04-01T12:21:38.465Z,12.70
2023-04-01T12:24:27.326Z,12.50
2023-04-01T12:27:01.759Z,15.00
2023-04-01T12:29:50.010Z,13.80
2023-04-01T12:32:27.630Z,15.70
2023-04-01T12:35:08.393Z,13.90
2023-04-01T12:38:00.853Z,13.10
2023-04-01T12:40:57.451Z,11.70
2023-04-01T12:43:58.391Z,11.00
2023-04-01T12:46:54.182Z,11.90
2023-04-01T12:50:01.637Z,11.50
2023-04-01T12:53:04.407Z,8.60
2023-04-01T12:55:45.771Z,9.20
2023-04-01T12:58:24.107Z,9.00
2023-04-01T13:01:30.730Z,11.60
2023-04-01T13:04:20.688Z,11.20
2023-04-01T13:07:13.596Z,11.40
2023-04-01T13:09:54.452Z,11.30
2023-04-01T13:12:57.168Z,10.20
2023-04-01T13:15:54.007Z,6.50
2023-04-01T13:18:54.934Z,8.10
2023-04-01T13:21:45.706Z,6.50
2023-04-01T13:24:29.578Z,5.60
2023-04-01T13:27:20.073Z,5.50
2023-04-01T13:30:22.714Z,6.00
2023-04-01T13:32:56.975Z,4.30
2023-04-01T13:35:40.796Z,3.90
2023-04-01T13:38:44.795Z,5.10
2023-04-01T13:41:44.245Z,4.70
2023-04-01T13:44:16.876Z,4.20
2023-04-01T13:46:55.001Z,3.80
2023-04-01T13:49:57.485Z,5.50
2023-04-01T13:52:59.641Z,5.30
2023-04-01T13:56:06.198Z,5.30
2023-04-01T13:59:00.391Z,5.60
2023-04-01T14:01:50.318Z,5.40
2023-04-01T14:04:24.481Z,4.00
2023-04-01T14:07:18.474Z,6.00
2023-04-01T14:10:14.504Z,4.20
2023-04-01T14:12:45.960Z,4.90
2023-04-01T14:15:40.033Z,4.80
2023-04-01T14:18:27.782Z,5.40
2023-04-01T14:21:20.211Z,4.90
2023-04-01T14:24:16.328Z,5.20
2023-04-01T14:27:03.362Z,5.50
2023-04-01T14:29:53.432Z,4.70
2023-04-01T14:32:47.943Z,3.60
2023-04-01T14:35:39.186Z,4.30
2023-04-01T14:38:13.373Z,4.70
2023-04-01T14:40:53.772Z,5.40
2023-04-01T14:43:29.136Z,5.40
2023-04-01T14:46:35.358Z,4.70
2023-04-01T14:49:35.423Z,5.00
2023-04-01T14:52:17.036Z,4.30
2023-04-01T14:54:48.056Z,4.10
2023-04-01T14:57:29.626Z,5.80
2023-04-01T15:00:07.790Z,4.70
2023-04-01T15:03:20.741Z,4.80
2023-04-01T15:05:55.249Z,5.80
2023-04-01T15:08:24.007Z,4.40
2023-04-01T15:11:16.744Z,4.70
2023-04-01T15:14:19.724Z,4.90
2023-04-01T15:16:51.456Z,4.50
2023-04-01T15:19:42.154Z,6.90
2023-04-01T15:22:41.223Z,6.50
2023-04-01T15:25:44.793Z,8.50
2023-04-01T15:28:44.446Z,6.50
2023-04-01T15:31:19.116Z,5.60
2023-04-01T15:34:04.834Z,6.40
2023-04-01T15:36:52.799Z,6.00
2023-04-01T15:39:40.001Z,8.40
2023-04-01T15:42:20.334Z,8.20
2023-04-01T15:45:00.796Z,7.60
2023-04-01T15:47:36.512Z,9.50
2023-04-01T15:50:38.312Z,8.80
2023-04-01T15:53:19.103Z,7.00
2023-04-01T15:55:56.022Z,7.20
2023-04-01T15:58:42.709Z,7.10
2023-04-01T16:01:27.631Z,7.80
2023-04-01T16:04:33.957Z,7.30
2023-04-01T16:07:37.293Z,6.80
2023-04-01T16:10:23.189Z,7.00
2023-04-01T16:13:02.575Z,8.30
2023-04-01T16:15:46.425Z,11.10
2023-04-01T16:18:39.168Z,8.00
2023-04-01T16:21:39.591Z,11.70
2023-04-01T16:24:39.725Z,14.60
2023-04-01T16:27:23.491Z,11.30
2023-04-01T16:30:29.865Z,11.80
2023-04-01T16:33:21.688Z,10.60
2023-04-01T16:35:56.931Z,12.00
2023-04-01T16:38:32.714Z,11.30
2023-04-01T16:41:04.065Z,11.70
2023-04-01T16:43:49.135Z,11.80
2023-04-01T16:46:28.655Z,11.50
2023-04-01T16:49:12.720Z,10.30
2023-04-01T16:52:04.139Z,11.70
2023-04-01T16:54:45.486Z,10.70
2023-04-01T16:57:32.334Z,12.50
2023-04-01T17:00:25.205Z,14.60
2023-04-01T17:03:05.946Z,14.50
2023-04-01T17:06:03.605Z,12.80
2023-04-01T17:08:37.957Z,15.50
2023-04-01T17:11:28.654Z,15.60
2023-04-01T17:14:06.330Z,12.90
2023-04-01T17:16:46.184Z,15.40
2023-04-01T17:19:14.773Z,13.70
2023-04-01T17:21:43.274Z,14.20
2023-04-01T17:24:39.278Z,16.20
2023-04-01T17:27:33.322Z,14.00
2023-04-01T17:30:18.210Z,15.20
2023-04-01T17:33:17.123Z,15.20
2023-04-01T17:36:08.665Z,14.20
2023-04-01T17:38:40.113Z,15.80
2023-04-01T17:41:29.990Z,18.40
2023-04-01T17:44:22.678Z,14.60
2023-04-01T17:47:11.247Z,15.70
2023-04-01T17:49:58.132Z,14.70
2023-04-01T17:52:39.156Z,13.50
2023-04-01T17:55:29.423Z,15.50
2023-04-01T17:58:42.687Z,13.20
2023-04-01T18:01:13.819Z,12.30
2023-04-01T18:03:58.062Z,14.70
2023-04-01T18:06:38.561Z,14.50
2023-04-01T18:09:16.035Z,17.20
2023-04-01T18:12:07.978Z,16.20
2023-04-01T18:14:46.098Z,14.30
2023-04-01T18:17:17.281Z,14.70
2023-04-01T18:19:57.504Z,15.10
2023-04-01T18:22:52.879Z,11.10
2023-04-01T18:25:29.904Z,12.80
2023-04-01T18:28:22.792Z,14.00
2023-04-01T18:31:12.441Z,12.70
2023-04-01T18:34:08.430Z,13.20
2023-04-01T18:36:48.469Z,10.80
2023-04-01T18:39:29.761Z,11.80
2023-04-01T18:42:21.429Z,11.60
2023-04-01T18:45:08.001Z,22.30
2023-04-01T18:47:47.008Z,16.80
2023-04-01T18:50:34.689Z,13.60
2023-04-01T18:53:30.217Z,12.80
2023-04-01T18:56:16.491Z,12.30
2023-04-01T18:59:03.245Z,12.80
2023-04-01T19:01:41.469Z,10.00
2023-04-01T19:04:27.252Z,10.90
2023-04-01T19:06:59.798Z,10.20
2023-04-01T19:09:31.778Z,10.20
2023-04-01T19:12:18.781Z,8.70
2023-04-01T19:14:50.453Z,11.30
2023-04-01T19:17:45.347Z,11.70
2023-04-01T19:20:37.190Z,10.90
2023-04-01T19:23:53.840Z,10.70
2023-04-01T19:26:31.618Z,10.50
2023-04-01T19:29:33.124Z,12.10
2023-04-01T19:32:25.038Z,11.50
2023-04-01T19:35:29.061Z,11.80
2023-04-01T19:38:09.491Z,8.20
2023-04-01T19:40:49.334Z,8.80
2023-04-01T19:43:20.445Z,8.60
2023-04-01T19:46:04.104Z,9.80
2023-04-01T19:48:44.823Z,11.50
2023-04-01T19:51:43.102Z,8.80
2023-04-01T19:54:31.968Z,10.10
2023-04-01T19:57:29.214Z,9.60
2023-04-01T20:00:19.397Z,9.90
2023-04-01T20:05:39.542Z,10.50
2023-04-01T20:08:32.802Z,11.30
2023-04-01T20:11:16.893Z,9.10
2023-04-01T20:13:51.158Z,11.40
2023-04-01T20:16:20.005Z,8.10
2023-04-01T20:19:01.523Z,9.20
2023-04-01T20:21:51.145Z,10.60
2023-04-01T20:24:34.276Z,10.40
2023-04-01T20:27:24.201Z,10.10
2023-04-01T20:30:23.140Z,9.80
2023-04-01T20:32:57.601Z,10.80
2023-04-01T20:35:51.467Z,10.80
2023-04-01T20:38:41.813Z,10.50
2023-04-01T20:41:34.009Z,12.90
2023-04-01T20:44:20.764Z,11.00
2023-04-01T20:47:39.944Z,9.30
2023-04-01T20:50:08.639Z,9.90
2023-04-01T20:52:57.140Z,10.40
2023-04-01T20:55:44.383Z,10.50
2023-04-01T20:58:30.783Z,9.70
2023-04-01T21:01:28.685Z,9.80
2023-04-01T21:04:20.312Z,9.80
2023-04-01T21:06:57.688Z,10.50
2023-04-01T21:09:41.839Z,10.40
2023-04-01T21:12:32.332Z,9.90
2023-04-01T21:15:20.334Z,9.60
2023-04-01T21:17:51.750Z,20.30
2023-04-01T21:21:04.028Z,16.20
2023-04-01T21:23:54.614Z,13.80
2023-04-01T21:26:47.895Z,11.70
2023-04-01T21:29:31.315Z,10.00
2023-04-01T21:32:21.360Z,11.00
2023-04-01T21:37:30.727Z,10.10
2023-04-01T21:40:25.985Z,8.20
2023-04-01T21:43:18.297Z,10.20
2023-04-01T21:46:30.878Z,12.80
2023-04-01T21:49:21.217Z,11.70
2023-04-01T21:52:26.900Z,10.90
2023-04-01T21:55:36.899Z,11.00
2023-04-01T21:58:17.930Z,10.20
2023-04-01T22:00:55.725Z,11.00
2023-04-01T22:03:39.591Z,11.10
2023-04-01T22:06:27.013Z,10.40
2023-04-01T22:09:17.415Z,12.00
2023-04-01T22:12:05.603Z,13.10
2023-04-01T22:14:47.629Z,12.00
2023-04-01T22:17:20.333Z,10.20
2023-04-01T22:20:18.067Z,15.00
2023-04-01T22:23:14.543Z,14.70
2023-04-01T22:26:15.250Z,11.70
2023-04-01T22:29:01.238Z,12.40
2023-04-01T22:31:40.013Z,13.10
2023-04-01T22:34:22.917Z,13.60
2023-04-01T22:37:12.260Z,12.90
2023-04-01T22:40:18.427Z,12.10
2023-04-01T22:42:54.988Z,11.20
2023-04-01T22:45:58.682Z,9.50
2023-04-01T22:48:50.818Z,11.20
2023-04-01T22:51:28.634Z,10.20
2023-04-01T22:54:35.225Z,10.30
2023-04-01T22:57:14.772Z,10.90
2023-04-01T23:02:18.402Z,11.10
2023-04-01T23:04:56.736Z,10.30
2023-04-01T23:07:36.689Z,14.10
2023-04-01T23:10:16.669Z,12.90
2023-04-01T23:12:48.121Z,11.30
2023-04-01T23:15:18.793Z,11.70
2023-04-01T23:18:05.851Z,11.60
2023-04-01T23:20:56.309Z,12.60
2023-04-01T23:24:00.877Z,14.20
2023-04-01T23:26:49.045Z,11.10
2023-04-01T23:29:19.907Z,10.00
2023-04-01T23:31:58.752Z,11.80
2023-04-01T23:34:32.788Z,15.60
2023-04-01T23:37:23.968Z,16.00
2023-04-01T23:39:57.562Z,16.70
2023-04-01T23:42:42.380Z,17.50
2023-04-01T23:45:18.782Z,15.70
2023-04-01T23:47:53.683Z,14.60
2023-04-01T23:50:27.014Z,15.60
2023-04-01T23:53:14.644Z,15.00
2023-04-01T23:55:44.693Z,17.00
2023-04-01T23:58:48.149Z,15.80
